Switz City, Indiana
Current Conditions -  °F | °C
As of 5:15 AM on Sunday 25 Jan 2015 (Local Time) from KDCY Reporting Station
Broken Clouds Broken Clouds  
Wind Chill: 39°   Ceiling: 12000
Heat Index: 39°   Visibility: 10mi
Dew Point: 29°   Wind: 0mph
Humidity: 69%   Direction: NA
Pressure: 29.68"   Gusts: NA
Location:  39.03°N, 87.05°W
Report Text: KDCY 251015Z AUTO 00000KT 10SM BKN120 04/M01 A2968 RMK AO2 T00371015
Loading
Personal Weather Stations






























Interactive Weather Map New forecast layout! Learn more

10-Day Weather Forecast

Advertisements
Track Severe Weather on mobile